Time;durP1;ratioP1;P1;durP2;ratioP2;P2;SDS_P1;SDS_P2;PMS_P1;PMS_P2;Temp;Humidity;BMP_temperature;BMP_pressure;BME280_temperature;BME280_humidity;BME280_pressure;Samples;Min_cycle;Max_cycle;Signal;HPM_P1;HPM_P2
2024/01/12 00:00:45;;;;;;;71.97;23.65;;;0.20;99.90;;;;;;5104485;28;20043;-51
2024/01/12 00:03:10;;;;;;;74.00;21.45;;;0.20;99.90;;;;;;5104203;28;20218;-50
2024/01/12 00:05:36;;;;;;;65.03;19.98;;;0.10;99.90;;;;;;5103827;28;20429;-49
2024/01/12 00:08:01;;;;;;;83.35;24.60;;;0.10;99.90;;;;;;5105623;28;20034;-51
2024/01/12 00:10:27;;;;;;;74.97;23.27;;;0.20;99.90;;;;;;5103928;28;20099;-50
2024/01/12 00:12:52;;;;;;;73.22;23.65;;;0.10;99.90;;;;;;5104306;28;20046;-52
2024/01/12 00:15:18;;;;;;;81.78;23.95;;;0.10;99.90;;;;;;5105491;28;20442;-50
2024/01/12 00:17:44;;;;;;;70.32;22.10;;;0.10;99.90;;;;;;5104930;28;20023;-52
2024/01/12 00:20:10;;;;;;;75.55;25.95;;;0.10;99.90;;;;;;5105089;28;20024;-51
2024/01/12 00:22:35;;;;;;;72.07;22.00;;;0.10;99.90;;;;;;5102561;28;20072;-51
2024/01/12 00:25:01;;;;;;;79.13;23.67;;;0.10;99.90;;;;;;5100003;28;20023;-52
2024/01/12 00:27:27;;;;;;;62.95;22.50;;;0.10;99.90;;;;;;5085826;28;20411;-51
2024/01/12 00:29:52;;;;;;;62.45;20.65;;;0.10;99.90;;;;;;5105364;28;20015;-51
2024/01/12 00:32:18;;;;;;;65.40;22.00;;;0.10;99.90;;;;;;5109109;28;20088;-50
2024/01/12 00:34:43;;;;;;;63.88;21.50;;;0.10;99.90;;;;;;5108662;28;20134;-51
2024/01/12 00:37:09;;;;;;;61.47;20.15;;;0.10;99.90;;;;;;5109719;28;20020;-53
2024/01/12 00:39:36;;;;;;;72.43;20.60;;;0.10;99.90;;;;;;5100471;28;20502;-52
2024/01/12 00:42:03;;;;;;;64.18;22.10;;;0.10;99.90;;;;;;5109759;28;20067;-53
2024/01/12 00:44:28;;;;;;;69.18;23.10;;;0.10;99.90;;;;;;5108074;28;20023;-52
2024/01/12 00:46:55;;;;;;;59.83;20.48;;;0.10;99.90;;;;;;5109211;28;20030;-52
2024/01/12 00:49:21;;;;;;;62.38;19.80;;;0.00;99.90;;;;;;5109154;28;20106;-50
2024/01/12 00:51:47;;;;;;;57.72;21.90;;;0.10;99.90;;;;;;5108841;28;20110;-50
2024/01/12 00:54:13;;;;;;;74.75;24.17;;;0.00;99.90;;;;;;5109160;28;20024;-49
2024/01/12 00:56:39;;;;;;;71.55;21.90;;;0.10;99.90;;;;;;5108766;28;20358;-49
2024/01/12 00:59:06;;;;;;;81.47;25.13;;;0.10;99.90;;;;;;5108095;28;20049;-51
2024/01/12 01:01:31;;;;;;;75.28;22.50;;;0.10;99.90;;;;;;5109016;28;20026;-52
2024/01/12 01:03:57;;;;;;;77.15;22.92;;;0.10;99.90;;;;;;5109352;28;20028;-50
2024/01/12 01:06:22;;;;;;;70.20;23.77;;;0.00;99.90;;;;;;5107388;28;20381;-52
2024/01/12 01:08:48;;;;;;;77.38;23.02;;;0.10;99.90;;;;;;5108830;28;20018;-48
2024/01/12 01:11:14;;;;;;;85.85;23.75;;;0.10;99.90;;;;;;5108876;28;20027;-50
2024/01/12 01:13:40;;;;;;;67.63;20.70;;;0.00;99.90;;;;;;5107529;28;20020;-51
2024/01/12 01:16:06;;;;;;;80.45;21.88;;;0.00;99.90;;;;;;5109141;28;20020;-49
2024/01/12 01:18:32;;;;;;;74.28;23.60;;;0.10;99.90;;;;;;5107110;28;20039;-49
2024/01/12 01:20:58;;;;;;;79.90;24.67;;;0.10;99.90;;;;;;5109594;28;20460;-52
2024/01/12 01:23:23;;;;;;;71.55;22.17;;;0.10;99.90;;;;;;5099269;28;20032;-51
2024/01/12 01:25:50;;;;;;;85.20;23.58;;;0.10;99.90;;;;;;5099708;28;20046;-51
2024/01/12 01:28:15;;;;;;;79.55;24.45;;;0.10;99.90;;;;;;5103691;28;20461;-50
2024/01/12 01:30:41;;;;;;;69.57;21.80;;;0.10;99.90;;;;;;5105851;28;20035;-48
2024/01/12 01:33:07;;;;;;;74.25;20.60;;;0.10;99.90;;;;;;5105599;28;20028;-49
2024/01/12 01:35:33;;;;;;;58.13;19.27;;;0.10;99.90;;;;;;5106612;28;20435;-49
2024/01/12 01:37:58;;;;;;;66.45;22.20;;;0.10;99.90;;;;;;5107003;28;20499;-52
2024/01/12 01:40:24;;;;;;;58.60;19.33;;;0.10;99.90;;;;;;5105488;28;20031;-52
2024/01/12 01:42:49;;;;;;;60.53;19.90;;;0.10;99.90;;;;;;5107821;28;20454;-49
2024/01/12 01:45:15;;;;;;;57.03;19.83;;;0.10;99.90;;;;;;5109399;28;20023;-50
2024/01/12 01:47:45;;;;;;;62.20;19.10;;;0.10;99.90;;;;;;5108605;28;20085;-48
2024/01/12 01:50:13;;;;;;;51.00;18.40;;;0.10;99.90;;;;;;5109921;28;20024;-48
2024/01/12 01:52:41;;;;;;;59.80;19.50;;;0.10;99.90;;;;;;5108831;28;20030;-49
2024/01/12 01:55:07;;;;;;;57.63;20.65;;;0.10;99.90;;;;;;5109402;28;20023;-50
2024/01/12 01:57:35;;;;;;;58.30;19.55;;;0.10;99.90;;;;;;5109356;28;20024;-48
2024/01/12 02:00:01;;;;;;;59.05;19.15;;;0.20;99.90;;;;;;5109248;28;20522;-49
2024/01/12 02:02:27;;;;;;;51.67;18.90;;;0.10;99.90;;;;;;5107663;28;20032;-48
2024/01/12 02:04:53;;;;;;;56.67;18.40;;;0.10;99.90;;;;;;5108169;28;20430;-50
2024/01/12 02:07:19;;;;;;;59.53;18.55;;;0.10;99.90;;;;;;5108988;28;20370;-49
2024/01/12 02:09:44;;;;;;;55.83;19.40;;;0.10;99.90;;;;;;5108595;28;20032;-49
2024/01/12 02:12:10;;;;;;;62.40;20.25;;;0.20;99.90;;;;;;5109271;28;20096;-50
2024/01/12 02:14:36;;;;;;;54.17;18.70;;;0.20;99.90;;;;;;5099580;28;20024;-48
2024/01/12 02:17:02;;;;;;;62.92;19.45;;;0.20;99.90;;;;;;5109630;28;20024;-49
2024/01/12 02:19:28;;;;;;;50.13;17.92;;;0.10;99.90;;;;;;5109160;28;20032;-52
2024/01/12 02:21:53;;;;;;;51.92;17.65;;;0.10;99.90;;;;;;5109555;28;20020;-53
2024/01/12 02:24:19;;;;;;;46.53;16.60;;;0.10;99.90;;;;;;5109558;28;20372;-49
2024/01/12 02:26:44;;;;;;;60.92;18.73;;;0.20;99.90;;;;;;5108105;28;20024;-50
2024/01/12 02:29:10;;;;;;;57.67;21.00;;;0.20;99.90;;;;;;5090605;28;20037;-52
2024/01/12 02:31:36;;;;;;;53.85;18.25;;;0.20;99.90;;;;;;5107915;28;20020;-52
2024/01/12 02:34:02;;;;;;;54.92;18.73;;;0.20;99.90;;;;;;5108829;28;20099;-52
2024/01/12 02:36:27;;;;;;;53.25;17.15;;;0.20;99.90;;;;;;5106186;28;20675;-50
2024/01/12 02:38:55;;;;;;;62.42;20.77;;;0.20;99.90;;;;;;5107346;28;20027;-53
2024/01/12 02:41:20;;;;;;;59.80;19.75;;;0.20;99.90;;;;;;5102038;28;20231;-54
2024/01/12 02:43:47;;;;;;;55.20;19.25;;;0.20;99.90;;;;;;5088942;28;21060;-50
2024/01/12 02:46:12;;;;;;;55.90;17.98;;;0.30;99.90;;;;;;5089337;28;20524;-49
2024/01/12 02:48:38;;;;;;;48.25;17.20;;;0.20;99.90;;;;;;5088729;28;20046;-50
2024/01/12 02:51:04;;;;;;;64.43;20.92;;;0.30;99.90;;;;;;5088891;28;20111;-49
2024/01/12 02:53:30;;;;;;;57.38;18.10;;;0.30;99.90;;;;;;5088518;28;20090;-50
2024/01/12 02:55:55;;;;;;;54.90;17.45;;;0.30;99.90;;;;;;5088863;28;20020;-50
2024/01/12 02:58:21;;;;;;;62.55;19.42;;;0.30;99.90;;;;;;5089100;28;20034;-52
2024/01/12 03:00:47;;;;;;;57.63;19.13;;;0.30;99.90;;;;;;5087284;28;20421;-50
2024/01/12 03:03:12;;;;;;;62.20;20.67;;;0.30;99.90;;;;;;5089025;28;20071;-49
2024/01/12 03:05:38;;;;;;;63.00;19.60;;;0.30;99.90;;;;;;5087719;28;20051;-48
2024/01/12 03:08:04;;;;;;;60.28;20.65;;;0.40;99.90;;;;;;5087889;28;20393;-51
2024/01/12 03:10:29;;;;;;;63.97;18.38;;;0.40;99.90;;;;;;5088678;28;20073;-48
2024/01/12 03:12:55;;;;;;;52.58;18.98;;;0.40;99.90;;;;;;5089004;28;20377;-51
2024/01/12 03:15:21;;;;;;;61.28;18.02;;;0.40;99.90;;;;;;5089204;28;20134;-52
2024/01/12 03:17:46;;;;;;;59.15;17.77;;;0.40;99.90;;;;;;5089530;28;20082;-52
2024/01/12 03:20:12;;;;;;;64.97;18.02;;;0.40;99.90;;;;;;5088958;28;20036;-50
2024/01/12 03:22:38;;;;;;;57.67;19.50;;;0.40;99.90;;;;;;5089142;28;20417;-49
2024/01/12 03:25:03;;;;;;;64.35;19.85;;;0.40;99.90;;;;;;5089746;28;20024;-51
2024/01/12 03:27:29;;;;;;;64.15;18.83;;;0.40;99.90;;;;;;5089322;28;20059;-50
2024/01/12 03:29:55;;;;;;;65.20;20.35;;;0.30;99.90;;;;;;5088173;28;20012;-52
2024/01/12 03:32:21;;;;;;;55.40;19.17;;;0.40;99.90;;;;;;5088878;28;20024;-50
2024/01/12 03:34:47;;;;;;;53.67;16.88;;;0.40;99.90;;;;;;5089167;28;20027;-50
2024/01/12 03:37:12;;;;;;;65.85;19.90;;;0.30;99.90;;;;;;5089032;28;20381;-53
2024/01/12 03:39:38;;;;;;;62.25;20.10;;;0.30;99.90;;;;;;5088904;28;20036;-53
2024/01/12 03:42:04;;;;;;;55.05;18.58;;;0.40;99.90;;;;;;5087370;28;20032;-50
2024/01/12 03:44:29;;;;;;;59.28;17.75;;;0.40;99.90;;;;;;5088723;28;20028;-50
2024/01/12 03:46:55;;;;;;;76.15;22.15;;;0.40;99.90;;;;;;5089786;28;20029;-51
2024/01/12 03:49:22;;;;;;;72.78;23.25;;;0.40;99.90;;;;;;5089171;28;20103;-52
2024/01/12 03:51:53;;;;;;;71.43;22.13;;;0.40;99.90;;;;;;5090235;28;20051;-51
2024/01/12 03:54:22;;;;;;;65.40;21.27;;;0.30;99.90;;;;;;5088425;28;20489;-51
2024/01/12 03:56:48;;;;;;;65.97;20.67;;;0.40;99.90;;;;;;5090001;28;20032;-52
2024/01/12 03:59:13;;;;;;;68.47;21.85;;;0.40;99.90;;;;;;5089716;28;20100;-52
2024/01/12 04:01:43;;;;;;;74.90;22.58;;;0.30;99.90;;;;;;5090567;28;20024;-50
2024/01/12 04:04:08;;;;;;;75.53;22.70;;;0.30;99.90;;;;;;5090102;28;20185;-49
2024/01/12 04:06:34;;;;;;;74.93;23.05;;;0.30;99.90;;;;;;5093053;28;20090;-50
2024/01/12 04:09:00;;;;;;;64.05;21.42;;;0.30;99.90;;;;;;5093299;28;20031;-51
2024/01/12 04:11:25;;;;;;;62.00;21.77;;;0.30;99.90;;;;;;5094187;28;20020;-51
2024/01/12 04:13:51;;;;;;;75.00;24.20;;;0.30;99.90;;;;;;5094600;28;20408;-50
2024/01/12 04:16:18;;;;;;;70.38;23.48;;;0.30;99.90;;;;;;5093564;28;20055;-49
2024/01/12 04:18:43;;;;;;;67.68;22.83;;;0.30;99.90;;;;;;5100652;28;20027;-51
2024/01/12 04:21:09;;;;;;;66.93;22.30;;;0.20;99.90;;;;;;5094237;28;20024;-49
2024/01/12 04:23:34;;;;;;;65.70;22.63;;;0.20;99.90;;;;;;5095373;28;20035;-49
2024/01/12 04:26:00;;;;;;;72.60;24.23;;;0.20;99.90;;;;;;5093741;28;20316;-51
2024/01/12 04:28:25;;;;;;;71.72;25.27;;;0.20;99.90;;;;;;5093673;28;20056;-52
2024/01/12 04:30:51;;;;;;;77.60;23.83;;;0.20;99.90;;;;;;5092707;28;20035;-52
2024/01/12 04:33:16;;;;;;;62.67;22.50;;;0.20;99.90;;;;;;5093854;28;20200;-51
2024/01/12 04:35:42;;;;;;;71.75;23.08;;;0.10;99.90;;;;;;5094900;28;20024;-50
2024/01/12 04:38:09;;;;;;;58.25;22.33;;;0.10;99.90;;;;;;5093411;28;20036;-52
2024/01/12 04:40:35;;;;;;;66.65;23.65;;;0.10;99.90;;;;;;5091629;28;20062;-51
2024/01/12 04:43:01;;;;;;;93.82;24.35;;;0.10;99.90;;;;;;5093412;28;20109;-51
2024/01/12 04:45:26;;;;;;;49.85;19.80;;;0.10;99.90;;;;;;5093020;28;20173;-53
2024/01/12 04:47:52;;;;;;;115.45;26.13;;;0.00;99.90;;;;;;5093578;28;20030;-51
2024/01/12 04:50:17;;;;;;;81.18;24.30;;;0.00;99.90;;;;;;5092458;28;20024;-51
2024/01/12 04:52:43;;;;;;;55.33;21.73;;;-0.10;99.90;;;;;;5095141;28;20028;-50
2024/01/12 04:55:08;;;;;;;84.10;22.67;;;-0.20;99.90;;;;;;5093585;28;20680;-50
2024/01/12 04:57:34;;;;;;;64.80;24.70;;;-0.20;99.90;;;;;;5093637;28;20028;-51
2024/01/12 04:59:59;;;;;;;56.95;21.88;;;-0.20;99.90;;;;;;5094036;27;20024;-52
2024/01/12 05:02:25;;;;;;;51.67;20.73;;;-0.20;99.90;;;;;;5094202;28;20026;-52
2024/01/12 05:04:51;;;;;;;52.20;18.23;;;-0.20;99.90;;;;;;5095526;28;20077;-49
2024/01/12 05:07:16;;;;;;;45.75;18.05;;;-0.20;99.90;;;;;;5094148;28;20034;-49
2024/01/12 05:09:42;;;;;;;46.33;16.83;;;-0.30;99.90;;;;;;5094048;28;20020;-50
2024/01/12 05:12:07;;;;;;;46.13;15.48;;;-0.30;99.90;;;;;;5093533;28;20016;-52
2024/01/12 05:14:33;;;;;;;41.00;15.63;;;-0.40;99.90;;;;;;5094850;28;20489;-51
2024/01/12 05:16:59;;;;;;;41.10;15.93;;;-0.40;99.90;;;;;;5096910;28;20023;-51
2024/01/12 05:19:24;;;;;;;53.40;18.02;;;-0.40;99.90;;;;;;5095814;28;20369;-51
2024/01/12 05:21:50;;;;;;;47.05;18.63;;;-0.40;99.90;;;;;;5095658;28;20055;-50
2024/01/12 05:24:16;;;;;;;71.35;19.05;;;-0.40;99.90;;;;;;5094302;28;20103;-52
2024/01/12 05:26:43;;;;;;;45.92;17.73;;;-0.40;99.90;;;;;;5095467;28;20418;-52
2024/01/12 05:29:09;;;;;;;57.20;20.88;;;-0.40;99.90;;;;;;5093477;28;20036;-53
2024/01/12 05:31:35;;;;;;;50.10;19.48;;;-0.40;99.90;;;;;;5095068;28;20602;-51
2024/01/12 05:34:00;;;;;;;50.20;18.75;;;-0.40;99.90;;;;;;5093427;28;20025;-52
2024/01/12 05:36:26;;;;;;;55.45;20.15;;;-0.40;99.90;;;;;;5094142;28;20028;-50
2024/01/12 05:38:51;;;;;;;55.03;19.33;;;-0.40;99.90;;;;;;5095449;28;20143;-50
2024/01/12 05:41:17;;;;;;;54.92;18.38;;;-0.40;99.90;;;;;;5093945;28;20067;-52
2024/01/12 05:43:43;;;;;;;46.10;17.75;;;-0.40;99.90;;;;;;5093522;28;20031;-50
2024/01/12 05:46:08;;;;;;;47.15;18.17;;;-0.40;99.90;;;;;;5092042;28;20028;-51
2024/01/12 05:48:34;;;;;;;44.90;16.95;;;-0.50;99.90;;;;;;5091441;28;20028;-50
2024/01/12 05:51:00;;;;;;;55.10;19.20;;;-0.50;99.90;;;;;;5092019;28;20396;-50
2024/01/12 05:53:25;;;;;;;63.55;21.38;;;-0.40;99.90;;;;;;5094148;28;20047;-51
2024/01/12 05:55:52;;;;;;;51.25;18.45;;;-0.50;99.90;;;;;;5095921;28;20020;-52
2024/01/12 05:58:19;;;;;;;56.25;19.15;;;-0.40;99.90;;;;;;5094207;28;20028;-52
2024/01/12 06:00:45;;;;;;;59.90;19.85;;;-0.40;99.90;;;;;;5095779;28;20024;-52
2024/01/12 06:03:11;;;;;;;61.35;22.52;;;-0.40;99.90;;;;;;5094161;28;20031;-51
2024/01/12 06:05:37;;;;;;;62.50;21.67;;;-0.40;99.90;;;;;;5095522;28;20447;-52
2024/01/12 06:08:02;;;;;;;58.78;22.13;;;-0.40;99.90;;;;;;5094817;28;20036;-51
2024/01/12 06:10:28;;;;;;;54.83;19.77;;;-0.40;99.90;;;;;;5093972;28;20491;-50
2024/01/12 06:12:54;;;;;;;61.95;21.83;;;-0.40;99.90;;;;;;5095959;28;20035;-52
2024/01/12 06:15:19;;;;;;;67.25;24.13;;;-0.30;99.90;;;;;;5094148;28;20516;-50
2024/01/12 06:17:45;;;;;;;67.18;22.67;;;-0.30;99.90;;;;;;5096146;28;20024;-52
2024/01/12 06:20:11;;;;;;;77.55;25.80;;;-0.30;99.90;;;;;;5093958;28;20024;-51
2024/01/12 06:22:36;;;;;;;66.28;22.42;;;-0.30;99.90;;;;;;5095564;28;20085;-50
2024/01/12 06:25:03;;;;;;;82.10;25.20;;;-0.30;99.90;;;;;;5094812;27;20019;-51
2024/01/12 06:27:28;;;;;;;52.65;20.50;;;-0.30;99.90;;;;;;5093824;28;20085;-52
2024/01/12 06:29:54;;;;;;;64.82;20.60;;;-0.30;99.90;;;;;;5095933;28;20407;-51
2024/01/12 06:32:19;;;;;;;66.38;24.63;;;-0.20;99.90;;;;;;5093991;28;20027;-54
2024/01/12 06:34:45;;;;;;;64.18;23.77;;;-0.20;99.90;;;;;;5096070;28;20613;-52
2024/01/12 06:37:10;;;;;;;78.85;24.38;;;-0.30;99.90;;;;;;5094058;28;20024;-51
2024/01/12 06:39:39;;;;;;;64.35;22.35;;;-0.30;99.90;;;;;;5094960;28;20096;-52
2024/01/12 06:42:05;;;;;;;71.53;25.00;;;-0.20;99.90;;;;;;5092638;28;20016;-52
2024/01/12 06:44:30;;;;;;;63.35;23.60;;;-0.20;99.90;;;;;;5092333;28;20039;-52
2024/01/12 06:46:56;;;;;;;70.15;23.98;;;-0.30;99.90;;;;;;5093509;28;20327;-52
2024/01/12 06:49:21;;;;;;;68.15;23.17;;;-0.20;99.90;;;;;;5093785;28;20055;-52
2024/01/12 06:51:47;;;;;;;61.05;21.23;;;-0.30;99.90;;;;;;5095449;28;20500;-51
2024/01/12 06:54:13;;;;;;;49.95;18.88;;;-0.20;99.90;;;;;;5094171;28;20020;-51
2024/01/12 06:56:39;;;;;;;56.05;20.70;;;-0.20;99.90;;;;;;5095706;28;20016;-52
2024/01/12 06:59:05;;;;;;;62.78;22.85;;;-0.20;99.90;;;;;;5094621;28;20041;-51
2024/01/12 07:01:31;;;;;;;60.88;21.17;;;-0.20;99.90;;;;;;5094593;28;20016;-50
2024/01/12 07:03:57;;;;;;;56.22;21.83;;;-0.20;99.90;;;;;;5096238;28;20019;-50
2024/01/12 07:06:22;;;;;;;59.33;22.05;;;-0.20;99.90;;;;;;5093874;28;20028;-50
2024/01/12 07:08:48;;;;;;;68.85;22.63;;;-0.20;99.90;;;;;;5096856;28;20055;-52
2024/01/12 07:11:14;;;;;;;57.90;22.60;;;-0.20;99.90;;;;;;5094101;28;20024;-50
2024/01/12 07:13:39;;;;;;;51.88;19.48;;;-0.30;99.90;;;;;;5090517;28;20111;-49
2024/01/12 07:16:05;;;;;;;49.83;18.50;;;-0.30;99.90;;;;;;5094995;28;20430;-48
2024/01/12 07:18:31;;;;;;;62.58;20.90;;;-0.30;99.90;;;;;;5091667;28;20419;-52
2024/01/12 07:21:02;;;;;;;52.90;19.60;;;-0.30;99.90;;;;;;5092278;28;20581;-51
2024/01/12 07:23:31;;;;;;;57.88;20.08;;;-0.30;99.90;;;;;;5091233;28;20016;-50
2024/01/12 07:25:57;;;;;;;53.83;18.35;;;-0.40;99.90;;;;;;5095247;28;20444;-50
2024/01/12 07:28:24;;;;;;;50.22;18.15;;;-0.30;99.90;;;;;;5092310;28;20532;-48
2024/01/12 07:30:51;;;;;;;59.13;19.02;;;-0.40;99.90;;;;;;5091914;28;20024;-49
2024/01/12 07:33:17;;;;;;;53.72;17.98;;;-0.40;99.90;;;;;;5092965;28;20458;-49
2024/01/12 07:35:42;;;;;;;43.47;17.58;;;-0.40;99.90;;;;;;5095752;28;20020;-51
2024/01/12 07:38:09;;;;;;;58.97;21.00;;;-0.50;99.90;;;;;;5096398;28;20036;-50
2024/01/12 07:40:34;;;;;;;53.67;20.60;;;-0.40;99.90;;;;;;5098512;28;20030;-49
2024/01/12 07:43:00;;;;;;;55.08;20.95;;;-0.50;99.90;;;;;;5096626;28;20413;-48
2024/01/12 07:45:25;;;;;;;55.22;19.98;;;-0.50;99.90;;;;;;5092476;28;20082;-51
2024/01/12 07:47:51;;;;;;;67.65;20.98;;;-0.50;99.90;;;;;;5092036;28;20020;-49
2024/01/12 07:50:17;;;;;;;51.38;18.35;;;-0.50;99.90;;;;;;5092246;28;20590;-50
2024/01/12 07:52:43;;;;;;;64.05;22.17;;;-0.50;99.90;;;;;;5093842;28;20258;-48
2024/01/12 07:55:09;;;;;;;53.58;19.60;;;-0.40;99.90;;;;;;5092207;28;20481;-49
2024/01/12 07:57:34;;;;;;;60.67;20.38;;;-0.40;99.90;;;;;;5090351;28;20024;-51
2024/01/12 08:00:00;;;;;;;52.42;20.52;;;-0.40;99.90;;;;;;5097582;28;20484;-52
2024/01/12 08:02:25;;;;;;;64.85;20.05;;;-0.40;99.90;;;;;;5095549;28;20115;-52
2024/01/12 08:04:51;;;;;;;59.83;21.52;;;-0.30;99.90;;;;;;5093956;28;20023;-50
2024/01/12 08:07:16;;;;;;;68.28;21.23;;;-0.40;99.90;;;;;;5092881;28;20513;-51
2024/01/12 08:09:42;;;;;;;65.00;20.55;;;-0.40;99.90;;;;;;5100613;28;20050;-50
2024/01/12 08:12:08;;;;;;;56.90;20.35;;;-0.30;99.90;;;;;;5096443;28;20272;-48
2024/01/12 08:14:33;;;;;;;63.10;20.70;;;-0.30;99.90;;;;;;5099223;28;20021;-50
2024/01/12 08:16:59;;;;;;;67.88;21.88;;;-0.30;99.90;;;;;;5101146;28;20131;-49
2024/01/12 08:19:25;;;;;;;51.85;19.98;;;-0.30;99.90;;;;;;5099051;28;20099;-49
2024/01/12 08:21:50;;;;;;;62.75;20.48;;;-0.30;99.90;;;;;;5102320;28;20019;-49
2024/01/12 08:24:16;;;;;;;55.30;20.55;;;-0.30;99.90;;;;;;5099470;28;20073;-51
2024/01/12 08:26:43;;;;;;;72.18;21.42;;;-0.20;99.90;;;;;;5100895;28;20070;-49
2024/01/12 08:29:09;;;;;;;63.28;20.65;;;-0.20;99.90;;;;;;5099856;27;20111;-49
2024/01/12 08:31:34;;;;;;;60.20;21.85;;;-0.20;99.90;;;;;;5100374;28;20102;-51
2024/01/12 08:34:00;;;;;;;59.53;21.48;;;-0.20;99.90;;;;;;5101435;28;20477;-51
2024/01/12 08:36:26;;;;;;;65.70;22.83;;;-0.20;99.90;;;;;;5098729;28;20255;-49
2024/01/12 08:38:52;;;;;;;59.00;19.60;;;-0.20;99.90;;;;;;5101573;28;20090;-50
2024/01/12 08:41:17;;;;;;;68.93;23.05;;;-0.20;99.90;;;;;;5098998;28;20048;-50
2024/01/12 08:43:43;;;;;;;63.35;22.15;;;-0.10;99.90;;;;;;5100063;28;20024;-50
2024/01/12 08:46:08;;;;;;;68.43;22.58;;;-0.10;99.90;;;;;;5100104;28;20108;-49
2024/01/12 08:48:35;;;;;;;62.53;25.60;;;-0.10;99.90;;;;;;5099827;28;20013;-52
2024/01/12 08:51:01;;;;;;;73.65;24.98;;;0.00;99.90;;;;;;5100620;28;20032;-49
2024/01/12 08:53:27;;;;;;;83.35;26.42;;;0.00;99.90;;;;;;5099366;28;20562;-49
2024/01/12 08:55:53;;;;;;;76.90;26.20;;;0.10;99.90;;;;;;5098674;28;20195;-49
2024/01/12 08:58:19;;;;;;;71.90;25.60;;;0.10;99.90;;;;;;5098837;28;20054;-49
2024/01/12 09:00:44;;;;;;;70.47;22.98;;;0.20;99.90;;;;;;5099744;28;20054;-48
2024/01/12 09:03:10;;;;;;;72.10;26.42;;;0.20;99.90;;;;;;5099826;28;20024;-49
2024/01/12 09:05:35;;;;;;;74.47;24.83;;;0.20;99.90;;;;;;5099215;28;20065;-50
2024/01/12 09:08:01;;;;;;;64.32;25.90;;;0.20;99.90;;;;;;5098261;28;20019;-53
2024/01/12 09:10:27;;;;;;;80.88;26.50;;;0.30;99.90;;;;;;5097274;28;20023;-51
2024/01/12 09:12:53;;;;;;;65.32;22.75;;;0.30;99.90;;;;;;5101080;28;20016;-48
2024/01/12 09:15:18;;;;;;;54.80;20.98;;;0.30;99.90;;;;;;5097914;28;20028;-50
2024/01/12 09:17:44;;;;;;;51.75;21.67;;;0.30;99.90;;;;;;5098044;28;20024;-49
2024/01/12 09:20:10;;;;;;;58.72;20.40;;;0.40;99.90;;;;;;5090651;28;20099;-52
2024/01/12 09:22:36;;;;;;;60.78;22.33;;;0.40;99.90;;;;;;5093469;28;20030;-54
2024/01/12 09:25:01;;;;;;;53.35;21.33;;;0.40;99.90;;;;;;5093541;28;20065;-51
2024/01/12 09:27:27;;;;;;;55.10;21.48;;;0.40;99.90;;;;;;5097082;28;20047;-48
2024/01/12 09:29:53;;;;;;;52.78;20.90;;;0.40;99.90;;;;;;5094433;28;20023;-50
2024/01/12 09:32:18;;;;;;;52.47;19.48;;;0.50;99.90;;;;;;5095928;28;20039;-48
2024/01/12 09:34:44;;;;;;;54.53;21.65;;;0.50;99.90;;;;;;5091888;28;20473;-51
2024/01/12 09:37:09;;;;;;;50.63;20.50;;;0.50;99.90;;;;;;5091193;28;20035;-49
2024/01/12 09:39:35;;;;;;;49.08;19.35;;;0.60;99.90;;;;;;5091931;28;20500;-53
2024/01/12 09:42:04;;;;;;;51.80;19.27;;;0.60;99.90;;;;;;5102869;28;20051;-48
2024/01/12 09:44:37;;;;;;;52.40;21.30;;;0.70;99.90;;;;;;5099844;28;20381;-50
2024/01/12 09:47:03;;;;;;;49.17;20.23;;;0.70;99.90;;;;;;5102268;27;20019;-51
2024/01/12 09:49:30;;;;;;;52.95;21.38;;;0.70;99.90;;;;;;5098764;28;20052;-52
2024/01/12 09:52:01;;;;;;;45.33;20.60;;;0.70;99.90;;;;;;5102840;28;20020;-49
2024/01/12 09:54:27;;;;;;;43.92;19.20;;;0.70;99.90;;;;;;5095570;28;20038;-53
2024/01/12 09:56:55;;;;;;;48.03;18.35;;;0.70;99.90;;;;;;5102905;28;20476;-49
2024/01/12 09:59:23;;;;;;;48.13;19.42;;;0.80;99.90;;;;;;5099402;28;20397;-50
2024/01/12 10:01:49;;;;;;;45.40;19.02;;;0.80;99.90;;;;;;5102159;28;20023;-51
2024/01/12 10:04:15;;;;;;;44.53;19.45;;;0.80;99.90;;;;;;5099872;28;20019;-49
2024/01/12 10:06:40;;;;;;;42.22;17.90;;;0.80;99.90;;;;;;5100860;28;20016;-49
2024/01/12 10:09:07;;;;;;;41.17;18.05;;;0.80;99.90;;;;;;5101350;28;20476;-50
2024/01/12 10:11:33;;;;;;;38.47;16.67;;;0.80;99.90;;;;;;5100053;28;20046;-50
2024/01/12 10:13:59;;;;;;;40.05;18.85;;;0.80;99.90;;;;;;5102707;28;20012;-49
2024/01/12 10:16:29;;;;;;;30.33;15.57;;;0.80;99.90;;;;;;5099524;28;20028;-50
2024/01/12 10:18:58;;;;;;;35.85;16.73;;;0.80;99.90;;;;;;5093554;28;20026;-49
2024/01/12 10:21:24;;;;;;;38.67;18.07;;;0.80;99.90;;;;;;5099725;28;20027;-50
2024/01/12 10:24:05;;;;;;;37.78;17.83;;;0.80;99.90;;;;;;5102777;28;20012;-53
2024/01/12 10:26:31;;;;;;;34.67;16.88;;;0.90;99.90;;;;;;5096830;28;20025;-48
2024/01/12 10:29:01;;;;;;;43.17;19.35;;;0.90;99.90;;;;;;5102494;28;20042;-51
2024/01/12 10:31:27;;;;;;;39.08;17.95;;;0.90;99.90;;;;;;5099511;28;20569;-53
2024/01/12 10:33:54;;;;;;;43.65;19.40;;;0.90;99.90;;;;;;5093525;28;20135;-52
2024/01/12 10:36:23;;;;;;;43.55;19.25;;;0.90;99.90;;;;;;5100921;28;20091;-51
2024/01/12 10:38:50;;;;;;;38.70;18.50;;;0.90;99.90;;;;;;5100613;28;20034;-52
2024/01/12 10:41:20;;;;;;;51.75;20.85;;;0.90;99.90;;;;;;5100665;28;20110;-52
2024/01/12 10:43:51;;;;;;;52.22;19.73;;;0.90;99.90;;;;;;5101811;28;20016;-51
2024/01/12 10:46:39;;;;;;;49.42;20.00;;;0.90;99.90;;;;;;5103031;28;20028;-50
2024/01/12 10:49:13;;;;;;;47.10;19.88;;;1.00;99.90;;;;;;5094146;28;20027;-49
2024/01/12 10:51:43;;;;;;;47.42;19.95;;;1.00;99.90;;;;;;5101055;28;20012;-50
2024/01/12 10:54:18;;;;;;;34.33;15.20;;;1.00;99.90;;;;;;5100519;27;20399;-50
2024/01/12 10:56:44;;;;;;;51.35;22.52;;;1.00;99.90;;;;;;5101517;28;20020;-51
2024/01/12 10:59:11;;;;;;;48.75;21.27;;;1.00;99.90;;;;;;5101378;28;20024;-51
2024/01/12 11:01:39;;;;;;;51.30;22.10;;;1.00;99.90;;;;;;5100602;28;20012;-48
2024/01/12 11:04:05;;;;;;;51.95;22.13;;;1.00;99.90;;;;;;5097905;28;20028;-49
2024/01/12 11:06:31;;;;;;;51.63;22.35;;;1.00;99.90;;;;;;5098701;28;20070;-51
2024/01/12 11:08:58;;;;;;;53.13;22.55;;;1.00;99.90;;;;;;5102601;28;20413;-49
2024/01/12 11:11:34;;;;;;;47.85;22.23;;;1.00;99.90;;;;;;5100593;28;20020;-51
2024/01/12 11:14:01;;;;;;;52.17;21.55;;;1.00;99.90;;;;;;5090562;28;20123;-49
2024/01/12 11:16:27;;;;;;;47.17;21.67;;;1.00;99.90;;;;;;5099019;28;20028;-48
2024/01/12 11:18:52;;;;;;;45.60;19.85;;;1.00;99.90;;;;;;5096961;28;20024;-54
2024/01/12 11:21:25;;;;;;;49.80;21.17;;;1.00;99.90;;;;;;5101397;28;20066;-50
2024/01/12 11:23:51;;;;;;;42.65;20.70;;;1.10;99.90;;;;;;5102422;28;20069;-50
2024/01/12 11:26:18;;;;;;;51.97;22.55;;;1.10;99.90;;;;;;5100859;28;20036;-51
2024/01/12 11:28:44;;;;;;;42.97;19.83;;;1.10;99.90;;;;;;5101555;28;20024;-50
2024/01/12 11:31:09;;;;;;;47.85;19.48;;;1.10;99.90;;;;;;5102197;28;20024;-50
2024/01/12 11:33:41;;;;;;;43.55;20.52;;;1.20;99.90;;;;;;5100615;28;20051;-49
2024/01/12 11:36:12;;;;;;;41.55;18.50;;;1.20;99.90;;;;;;5098767;28;20061;-51
2024/01/12 11:38:42;;;;;;;40.85;18.83;;;1.20;99.90;;;;;;5090359;28;20417;-50
2024/01/12 11:41:12;;;;;;;40.55;19.52;;;1.20;99.90;;;;;;5090511;28;20024;-51
2024/01/12 11:43:38;;;;;;;48.08;18.30;;;1.20;99.90;;;;;;5096143;28;20361;-49
2024/01/12 11:46:05;;;;;;;42.55;18.85;;;1.20;99.90;;;;;;5101602;28;20105;-50
2024/01/12 11:48:32;;;;;;;47.55;20.67;;;1.30;99.90;;;;;;5100471;28;20024;-50
2024/01/12 11:50:58;;;;;;;44.10;19.55;;;1.30;99.90;;;;;;5102826;28;20016;-51
2024/01/12 11:53:23;;;;;;;39.85;18.92;;;1.30;99.90;;;;;;5100955;28;20034;-49
2024/01/12 11:55:49;;;;;;;43.88;18.67;;;1.40;99.90;;;;;;5101744;28;20016;-50
2024/01/12 11:58:15;;;;;;;47.00;20.63;;;1.50;99.90;;;;;;5102793;28;20342;-49
2024/01/12 12:00:40;;;;;;;46.15;20.45;;;1.50;99.90;;;;;;5101284;28;20036;-51
2024/01/12 12:03:08;;;;;;;40.00;18.50;;;1.60;99.90;;;;;;5102506;28;20076;-51
2024/01/12 12:05:34;;;;;;;45.15;19.58;;;1.70;99.90;;;;;;5100159;28;20083;-52
2024/01/12 12:08:01;;;;;;;45.38;18.33;;;1.90;99.90;;;;;;5102990;28;20065;-49
2024/01/12 12:10:27;;;;;;;45.13;20.33;;;2.00;99.90;;;;;;5100390;28;20060;-51
2024/01/12 12:12:52;;;;;;;47.10;22.77;;;2.20;99.90;;;;;;5102403;28;20008;-51
2024/01/12 12:15:18;;;;;;;48.10;19.92;;;2.20;99.90;;;;;;5102055;28;20035;-49
2024/01/12 12:17:46;;;;;;;48.58;21.73;;;2.30;99.90;;;;;;5101873;28;20431;-51
2024/01/12 12:20:12;;;;;;;46.40;21.13;;;2.40;99.90;;;;;;5103206;28;20024;-50
2024/01/12 12:22:42;;;;;;;44.30;21.50;;;2.40;99.90;;;;;;5101251;28;20542;-50
2024/01/12 12:25:09;;;;;;;48.70;22.25;;;2.40;99.90;;;;;;5104125;28;20388;-50
2024/01/12 12:27:36;;;;;;;45.72;22.42;;;2.30;99.90;;;;;;5104107;28;20019;-51